Time;durP1;ratioP1;P1;durP2;ratioP2;P2;SDS_P1;SDS_P2;PMS_P1;PMS_P2;Temp;Humidity;BMP_temperature;BMP_pressure;BME280_temperature;BME280_humidity;BME280_pressure;Samples;Min_cycle;Max_cycle;Signal;HPM_P1;HPM_P2
2023/04/15 00:02:14;;;;;;;4.15;3.75;;;9.20;42.10;;;;;;20804;6814;116879;-73
2023/04/15 00:04:40;;;;;;;4.12;3.70;;;8.90;42.70;;;;;;20558;6814;335405;-73
2023/04/15 00:07:06;;;;;;;4.60;3.90;;;8.90;43.20;;;;;;20590;6814;277463;-73
2023/04/15 00:09:31;;;;;;;5.30;3.73;;;9.20;42.40;;;;;;20793;6814;117334;-72
2023/04/15 00:11:58;;;;;;;4.03;3.70;;;9.10;42.60;;;;;;20810;6814;117192;-73
2023/04/15 00:14:25;;;;;;;3.90;3.60;;;8.50;43.80;;;;;;20806;6814;117312;-73
2023/04/15 00:16:54;;;;;;;4.10;3.70;;;8.50;43.80;;;;;;20793;6814;116895;-73
2023/04/15 00:19:16;;;;;;;4.40;3.93;;;8.30;44.10;;;;;;20569;6814;277360;-73
2023/04/15 00:21:41;;;;;;;4.18;3.75;;;8.50;43.70;;;;;;20571;6814;292529;-72
2023/04/15 00:24:07;;;;;;;6.07;4.20;;;8.90;43.30;;;;;;20811;6814;117421;-73
2023/04/15 00:26:34;;;;;;;3.92;3.62;;;8.80;43.30;;;;;;20794;6814;116912;-73
2023/04/15 00:28:59;;;;;;;3.37;3.10;;;8.60;43.80;;;;;;20806;6814;117043;-73
2023/04/15 00:31:25;;;;;;;4.10;3.70;;;8.30;44.30;;;;;;20565;6814;310385;-73
2023/04/15 00:33:52;;;;;;;4.28;3.22;;;8.50;44.40;;;;;;20810;6814;117071;-72
2023/04/15 00:36:17;;;;;;;5.50;3.97;;;8.50;44.40;;;;;;20796;6813;117271;-73
2023/04/15 00:38:42;;;;;;;4.72;3.70;;;8.30;44.70;;;;;;20808;6814;117213;-73
2023/04/15 00:41:08;;;;;;;4.18;3.35;;;8.10;45.00;;;;;;20794;6814;116763;-73
2023/04/15 00:43:34;;;;;;;5.10;3.60;;;7.90;45.30;;;;;;20800;6814;117342;-73
2023/04/15 00:45:59;;;;;;;4.53;3.72;;;7.80;45.60;;;;;;20582;6814;310835;-73
2023/04/15 00:48:25;;;;;;;5.20;3.63;;;8.00;45.80;;;;;;20589;6814;339558;-73
2023/04/15 00:50:50;;;;;;;4.80;3.95;;;8.40;45.00;;;;;;20587;6814;305887;-73
2023/04/15 00:53:16;;;;;;;4.32;3.47;;;8.70;44.60;;;;;;20776;6814;118106;-73
2023/04/15 00:55:42;;;;;;;5.27;3.90;;;8.70;44.00;;;;;;20585;6814;307180;-73
2023/04/15 00:58:08;;;;;;;6.50;3.90;;;8.70;43.60;;;;;;20594;6814;277468;-73
2023/04/15 01:00:34;;;;;;;3.63;3.33;;;8.90;43.30;;;;;;20812;6814;117108;-73
2023/04/15 01:02:59;;;;;;;4.50;3.83;;;8.70;43.70;;;;;;20590;6814;337615;-73
2023/04/15 01:05:25;;;;;;;3.65;3.33;;;8.70;43.60;;;;;;20782;6814;116957;-73
2023/04/15 01:07:50;;;;;;;4.70;4.20;;;8.50;43.80;;;;;;20593;6814;335365;-73
2023/04/15 01:10:15;;;;;;;4.20;3.87;;;8.50;43.80;;;;;;20809;6814;123178;-73
2023/04/15 01:12:42;;;;;;;4.10;3.80;;;8.40;44.10;;;;;;20594;6814;310858;-73
2023/04/15 01:15:09;;;;;;;3.53;3.22;;;8.30;44.30;;;;;;20792;6814;117308;-73
2023/04/15 01:17:33;;;;;;;6.47;3.90;;;8.30;44.30;;;;;;20778;6814;121492;-73
2023/04/15 01:19:58;;;;;;;4.95;3.53;;;8.00;44.80;;;;;;20812;6814;117525;-73
2023/04/15 01:22:25;;;;;;;3.78;3.47;;;7.70;45.30;;;;;;20812;6814;117621;-73
2023/04/15 01:24:50;;;;;;;5.82;3.60;;;7.50;45.80;;;;;;20804;6814;117075;-73
2023/04/15 01:27:15;;;;;;;3.78;3.45;;;7.30;46.30;;;;;;20772;6814;121762;-73
2023/04/15 01:29:41;;;;;;;3.70;3.40;;;7.20;46.60;;;;;;20816;6814;117516;-73
2023/04/15 01:32:06;;;;;;;4.85;4.10;;;7.10;46.90;;;;;;20510;6814;332484;-73
2023/04/15 01:34:33;;;;;;;4.77;3.63;;;7.30;46.90;;;;;;20871;6814;116512;-72
2023/04/15 01:37:00;;;;;;;4.07;3.63;;;7.30;46.70;;;;;;20779;6814;117493;-72
2023/04/15 01:39:25;;;;;;;3.50;3.20;;;7.20;47.00;;;;;;20765;6814;117210;-72
2023/04/15 01:41:51;;;;;;;4.72;4.12;;;7.10;47.30;;;;;;20556;6814;310278;-73
2023/04/15 01:44:17;;;;;;;5.62;3.70;;;7.20;47.10;;;;;;20786;6814;116961;-72
2023/04/15 01:46:42;;;;;;;4.53;4.10;;;7.30;46.90;;;;;;20555;6814;306771;-71
2023/04/15 01:49:08;;;;;;;4.65;4.25;;;7.50;46.80;;;;;;20563;6813;340289;-72
2023/04/15 01:51:33;;;;;;;4.87;4.10;;;7.80;46.00;;;;;;20569;6814;285561;-72
2023/04/15 01:53:59;;;;;;;4.97;4.20;;;8.10;45.60;;;;;;20593;6814;304050;-72
2023/04/15 01:56:25;;;;;;;4.80;4.30;;;8.20;45.00;;;;;;20590;6814;281079;-72
2023/04/15 01:58:51;;;;;;;4.07;3.78;;;8.20;45.10;;;;;;20809;6814;116833;-72
2023/04/15 02:01:18;;;;;;;4.17;3.87;;;8.20;45.10;;;;;;20780;6814;118434;-73
2023/04/15 02:03:42;;;;;;;4.20;3.80;;;7.80;45.70;;;;;;20819;6814;117941;-72
2023/04/15 02:06:07;;;;;;;5.17;4.20;;;7.50;46.40;;;;;;20585;6814;335615;-72
2023/04/15 02:08:33;;;;;;;4.40;4.10;;;7.60;46.00;;;;;;20603;6814;335572;-72
2023/04/15 02:11:00;;;;;;;5.12;4.62;;;7.90;45.30;;;;;;20602;6814;278044;-72
2023/04/15 02:13:24;;;;;;;5.25;4.43;;;8.20;44.80;;;;;;20568;6814;277896;-73
2023/04/15 02:15:51;;;;;;;4.85;4.20;;;8.40;44.40;;;;;;20589;6814;276964;-72
2023/04/15 02:18:16;;;;;;;4.47;4.07;;;8.20;44.60;;;;;;20807;6814;121106;-72
2023/04/15 02:20:43;;;;;;;4.57;4.10;;;8.20;44.60;;;;;;20808;6814;117662;-72
2023/04/15 02:23:08;;;;;;;4.73;4.33;;;7.80;45.30;;;;;;20590;6814;310079;-72
2023/04/15 02:25:34;;;;;;;4.60;4.20;;;7.80;45.40;;;;;;20783;6814;116942;-72
2023/04/15 02:28:00;;;;;;;4.10;3.70;;;7.40;46.10;;;;;;20811;6814;117033;-72
2023/04/15 02:30:26;;;;;;;5.77;4.57;;;7.40;46.10;;;;;;20601;6814;324262;-72
2023/04/15 02:32:51;;;;;;;4.62;3.65;;;7.50;45.80;;;;;;20812;6814;116928;-74
2023/04/15 02:35:18;;;;;;;4.35;3.95;;;7.50;45.80;;;;;;20774;6814;117627;-73
2023/04/15 02:37:44;;;;;;;5.57;3.57;;;7.20;46.20;;;;;;20792;6814;117073;-72
2023/04/15 02:40:10;;;;;;;4.33;3.93;;;7.00;46.70;;;;;;20589;6814;277338;-72
2023/04/15 02:42:34;;;;;;;5.25;4.22;;;7.20;46.80;;;;;;20586;6814;335069;-72
2023/04/15 02:44:59;;;;;;;4.75;4.35;;;7.50;46.00;;;;;;20586;6814;310236;-72
2023/04/15 02:47:25;;;;;;;5.15;4.05;;;7.70;45.70;;;;;;20787;6814;120734;-72
2023/04/15 02:49:51;;;;;;;4.47;3.87;;;7.60;45.50;;;;;;20807;6814;120847;-73
2023/04/15 02:52:17;;;;;;;4.87;4.43;;;7.30;46.10;;;;;;20589;6814;302892;-72
2023/04/15 02:54:42;;;;;;;4.07;3.83;;;7.30;46.00;;;;;;20806;6814;117551;-72
2023/04/15 02:57:09;;;;;;;4.43;4.03;;;7.30;46.20;;;;;;20590;6814;328117;-73
2023/04/15 02:59:33;;;;;;;5.20;4.10;;;7.40;46.10;;;;;;20568;6813;306776;-73
2023/04/15 03:01:59;;;;;;;4.30;3.90;;;7.60;45.60;;;;;;20809;6814;116948;-72
2023/04/15 03:04:24;;;;;;;4.40;4.00;;;7.40;45.70;;;;;;20803;6814;120859;-72
2023/04/15 03:06:50;;;;;;;6.10;3.78;;;7.10;46.30;;;;;;20806;6814;116832;-72
2023/04/15 03:09:16;;;;;;;5.70;3.60;;;6.80;46.90;;;;;;20788;6814;116862;-73
2023/04/15 03:11:41;;;;;;;4.97;3.58;;;6.60;47.40;;;;;;20807;6814;116988;-73
2023/04/15 03:14:07;;;;;;;4.35;3.95;;;6.50;48.00;;;;;;20595;6814;336454;-72
2023/04/15 03:16:32;;;;;;;4.03;3.70;;;6.60;47.60;;;;;;20799;6814;116830;-72
2023/04/15 03:18:58;;;;;;;3.87;3.57;;;6.70;47.50;;;;;;20818;6814;116850;-72
2023/04/15 03:21:23;;;;;;;4.57;4.10;;;6.50;47.60;;;;;;20579;6814;306488;-73
2023/04/15 03:23:49;;;;;;;5.50;4.10;;;6.70;47.30;;;;;;20609;6814;286090;-73
2023/04/15 03:26:25;;;;;;;4.70;4.25;;;7.00;46.80;;;;;;20596;6814;293016;-72
2023/04/15 03:28:51;;;;;;;4.97;4.00;;;7.40;46.50;;;;;;20589;6814;307792;-73
2023/04/15 03:31:17;;;;;;;4.43;4.03;;;7.40;45.90;;;;;;20784;6814;116965;-73
2023/04/15 03:33:42;;;;;;;3.97;3.67;;;7.10;46.10;;;;;;20811;6814;122845;-73
2023/04/15 03:36:08;;;;;;;6.10;3.90;;;6.80;46.80;;;;;;20800;6814;116729;-73
2023/04/15 03:38:33;;;;;;;3.70;3.50;;;6.50;47.50;;;;;;20798;6814;116893;-73
2023/04/15 03:40:59;;;;;;;5.53;4.40;;;6.20;48.00;;;;;;20592;6814;335892;-73
2023/04/15 03:43:26;;;;;;;4.80;4.40;;;6.70;47.50;;;;;;20577;6814;312334;-73
2023/04/15 03:45:51;;;;;;;4.37;3.97;;;6.60;47.40;;;;;;20580;6814;335434;-74
2023/04/15 03:48:16;;;;;;;5.85;3.85;;;6.90;47.00;;;;;;20597;6814;298215;-73
2023/04/15 03:50:42;;;;;;;4.10;3.70;;;7.10;46.50;;;;;;20583;6814;312323;-73
2023/04/15 03:53:08;;;;;;;4.25;3.85;;;7.20;45.80;;;;;;20593;6814;333915;-73
2023/04/15 03:55:34;;;;;;;5.12;3.72;;;7.40;45.50;;;;;;20565;6814;339934;-73
2023/04/15 03:57:59;;;;;;;4.10;3.70;;;7.30;45.40;;;;;;20808;6814;117036;-73
2023/04/15 04:00:26;;;;;;;3.95;3.65;;;6.60;46.70;;;;;;20810;6814;116796;-73
2023/04/15 04:02:51;;;;;;;4.00;3.70;;;6.60;46.70;;;;;;20804;6814;117276;-74
2023/04/15 04:05:17;;;;;;;4.50;3.78;;;6.40;47.60;;;;;;20561;6814;306872;-73
2023/04/15 04:07:44;;;;;;;4.37;4.03;;;6.30;47.50;;;;;;20590;6814;305615;-73
2023/04/15 04:10:10;;;;;;;4.50;4.10;;;6.60;47.10;;;;;;20596;6814;307040;-72
2023/04/15 04:12:35;;;;;;;5.62;4.25;;;6.80;46.60;;;;;;20808;6813;117943;-72
2023/04/15 04:15:01;;;;;;;4.30;4.00;;;6.60;46.70;;;;;;20590;6814;310813;-72
2023/04/15 04:17:28;;;;;;;4.55;3.90;;;6.60;47.30;;;;;;20583;6814;322681;-73
2023/04/15 04:19:54;;;;;;;3.90;3.50;;;6.60;47.00;;;;;;20815;6814;120878;-72
2023/04/15 04:22:26;;;;;;;6.18;4.20;;;6.60;47.00;;;;;;20599;6814;307261;-73
2023/04/15 04:25:01;;;;;;;4.60;4.20;;;6.60;47.50;;;;;;20592;6814;306496;-73
2023/04/15 04:27:26;;;;;;;4.10;3.80;;;6.80;47.00;;;;;;20782;6814;117567;-73
2023/04/15 04:29:51;;;;;;;5.00;4.37;;;6.60;47.20;;;;;;20599;6814;276517;-73
2023/04/15 04:32:17;;;;;;;5.15;3.97;;;6.60;47.30;;;;;;20591;6814;306884;-74
2023/04/15 04:34:42;;;;;;;5.35;3.55;;;6.80;47.10;;;;;;20811;6814;116940;-73
2023/04/15 04:37:08;;;;;;;4.83;4.40;;;6.60;47.20;;;;;;20569;6814;338537;-73
2023/04/15 04:39:34;;;;;;;4.93;4.43;;;6.60;47.50;;;;;;20577;6814;434241;-73
2023/04/15 04:42:00;;;;;;;4.17;3.87;;;6.90;47.10;;;;;;20814;6814;117088;-73
2023/04/15 04:44:25;;;;;;;4.90;3.83;;;6.80;47.30;;;;;;20819;6814;116888;-73
2023/04/15 04:46:50;;;;;;;4.40;4.10;;;6.50;47.80;;;;;;20808;6814;118060;-74
2023/04/15 04:49:16;;;;;;;5.47;4.20;;;6.20;48.30;;;;;;20580;6814;282295;-73
2023/04/15 04:51:42;;;;;;;4.68;4.28;;;6.70;48.40;;;;;;20573;6814;335851;-73
2023/04/15 04:54:08;;;;;;;4.40;4.00;;;6.60;47.70;;;;;;20802;6814;117164;-74
2023/04/15 04:56:33;;;;;;;4.97;3.80;;;6.60;47.60;;;;;;20798;6814;116885;-73
2023/04/15 04:58:59;;;;;;;4.15;3.72;;;6.40;48.10;;;;;;20801;6814;117467;-73
2023/04/15 05:01:26;;;;;;;6.32;4.70;;;6.30;49.00;;;;;;20537;6814;306819;-75
2023/04/15 05:03:53;;;;;;;4.77;4.37;;;6.20;48.20;;;;;;20767;6814;121505;-74
2023/04/15 05:06:18;;;;;;;4.60;4.20;;;6.20;48.20;;;;;;20571;6814;306624;-73
2023/04/15 05:08:49;;;;;;;5.30;4.40;;;6.40;47.90;;;;;;20571;6814;278694;-76
2023/04/15 05:11:15;;;;;;;4.90;4.43;;;6.70;47.20;;;;;;20567;6814;347277;-77
2023/04/15 05:13:41;;;;;;;4.20;3.75;;;6.90;46.60;;;;;;20761;6814;117380;-74
2023/04/15 05:16:06;;;;;;;4.77;3.60;;;6.80;47.00;;;;;;20781;6814;116837;-73
2023/04/15 05:18:32;;;;;;;5.40;4.60;;;6.40;47.70;;;;;;20594;6814;306428;-74
2023/04/15 05:20:57;;;;;;;4.53;4.23;;;6.50;47.60;;;;;;20590;6814;307385;-74
2023/04/15 05:23:23;;;;;;;4.93;4.53;;;6.80;47.30;;;;;;20583;6813;288291;-74
2023/04/15 05:25:48;;;;;;;4.37;3.97;;;7.00;46.80;;;;;;20787;6814;116936;-73
2023/04/15 05:28:14;;;;;;;4.60;4.20;;;6.80;47.00;;;;;;20584;6814;331539;-73
2023/04/15 05:30:40;;;;;;;4.97;3.90;;;6.80;47.00;;;;;;20800;6814;116819;-73
2023/04/15 05:33:05;;;;;;;4.22;3.80;;;6.70;47.20;;;;;;20790;6814;116923;-74
2023/04/15 05:35:31;;;;;;;4.57;4.17;;;6.50;47.80;;;;;;20559;6814;306691;-72
2023/04/15 05:37:57;;;;;;;5.17;4.63;;;6.50;47.80;;;;;;20575;6814;297228;-72
2023/04/15 05:40:23;;;;;;;4.55;4.15;;;6.80;47.10;;;;;;20576;6814;306383;-72
2023/04/15 05:42:49;;;;;;;3.97;3.70;;;7.00;47.00;;;;;;20759;6814;117291;-72
2023/04/15 05:45:15;;;;;;;5.13;4.73;;;7.00;47.00;;;;;;20431;6814;305617;-73
2023/04/15 05:47:40;;;;;;;6.67;4.90;;;7.00;47.00;;;;;;20427;6814;278920;-72
2023/04/15 05:50:07;;;;;;;4.80;4.40;;;7.20;46.70;;;;;;20577;6814;297346;-71
2023/04/15 05:52:31;;;;;;;4.83;4.43;;;7.40;46.40;;;;;;20572;6814;306841;-71
2023/04/15 05:54:58;;;;;;;5.57;4.47;;;7.70;45.70;;;;;;20567;6814;278469;-72
2023/04/15 05:57:23;;;;;;;4.90;4.40;;;7.70;45.70;;;;;;20569;6814;277045;-73
2023/04/15 05:59:51;;;;;;;5.37;4.55;;;7.90;45.60;;;;;;20580;6814;306954;-71
2023/04/15 06:02:15;;;;;;;4.80;4.40;;;8.10;45.30;;;;;;20569;6814;306965;-72
2023/04/15 06:04:41;;;;;;;4.82;4.43;;;8.20;44.90;;;;;;20583;6814;282366;-71
2023/04/15 06:07:06;;;;;;;4.82;4.43;;;8.40;44.90;;;;;;20566;6814;276988;-71
2023/04/15 06:09:31;;;;;;;4.10;3.80;;;8.60;44.80;;;;;;20779;6814;116941;-71
2023/04/15 06:11:57;;;;;;;4.60;4.03;;;8.40;45.30;;;;;;20573;6814;286377;-71
2023/04/15 06:14:22;;;;;;;5.07;4.67;;;8.40;45.20;;;;;;20557;6814;307596;-71
2023/04/15 06:16:48;;;;;;;4.30;3.92;;;8.60;44.90;;;;;;20763;6814;116962;-71
2023/04/15 06:19:14;;;;;;;6.00;4.00;;;8.50;45.20;;;;;;20806;6814;116857;-71
2023/04/15 06:21:39;;;;;;;7.22;3.80;;;8.30;45.80;;;;;;20778;6814;125206;-71
2023/04/15 06:24:05;;;;;;;3.90;3.53;;;8.10;46.40;;;;;;20784;6814;120648;-72
2023/04/15 06:26:30;;;;;;;5.07;4.67;;;7.90;46.70;;;;;;20787;6814;116972;-72
2023/04/15 06:28:56;;;;;;;8.48;7.68;;;7.80;47.10;;;;;;20806;6814;116755;-71
2023/04/15 06:31:21;;;;;;;6.85;6.35;;;7.80;47.30;;;;;;20567;6814;336679;-72
2023/04/15 06:33:47;;;;;;;5.47;4.97;;;8.00;46.80;;;;;;20802;6813;117120;-72
2023/04/15 06:36:13;;;;;;;8.48;3.65;;;8.20;46.80;;;;;;20765;6814;116747;-72
2023/04/15 06:38:39;;;;;;;4.27;3.97;;;8.20;47.60;;;;;;20792;6814;119375;-71
2023/04/15 06:41:05;;;;;;;4.90;4.60;;;8.20;47.50;;;;;;20800;6814;120512;-71
2023/04/15 06:43:30;;;;;;;6.50;5.87;;;8.20;47.50;;;;;;20776;6814;132854;-71
2023/04/15 06:45:56;;;;;;;8.60;7.80;;;8.20;47.80;;;;;;20798;6814;116824;-71
2023/04/15 06:48:22;;;;;;;7.25;5.28;;;8.20;47.90;;;;;;20786;6814;123196;-71
2023/04/15 06:50:47;;;;;;;5.28;4.60;;;8.20;48.00;;;;;;20586;6814;314271;-71
2023/04/15 06:53:12;;;;;;;4.80;4.40;;;8.50;47.00;;;;;;20790;6814;119430;-71
2023/04/15 06:55:39;;;;;;;6.03;4.10;;;8.70;47.00;;;;;;20760;6814;117294;-72
2023/04/15 06:58:03;;;;;;;3.90;3.70;;;8.70;47.20;;;;;;20786;6814;116835;-71
2023/04/15 07:00:29;;;;;;;5.23;4.73;;;8.70;47.40;;;;;;20582;6814;292752;-71
2023/04/15 07:02:55;;;;;;;4.97;4.53;;;9.50;45.70;;;;;;20582;6814;303084;-72
2023/04/15 07:05:21;;;;;;;5.23;4.73;;;9.40;45.40;;;;;;20771;6814;117332;-72
2023/04/15 07:07:47;;;;;;;9.37;6.57;;;9.40;46.00;;;;;;20797;6814;118221;-72
2023/04/15 07:10:14;;;;;;;5.53;5.00;;;9.40;45.70;;;;;;20579;6814;306043;-72
2023/04/15 07:12:38;;;;;;;10.30;8.77;;;9.60;45.00;;;;;;20588;6814;277971;-72
2023/04/15 07:15:04;;;;;;;5.27;4.77;;;9.90;44.70;;;;;;20573;6814;284691;-72
2023/04/15 07:17:30;;;;;;;3.90;3.60;;;10.30;43.00;;;;;;20775;6814;122715;-73
2023/04/15 07:19:58;;;;;;;5.22;4.72;;;10.50;42.50;;;;;;20572;6814;306382;-75
2023/04/15 07:22:25;;;;;;;4.57;4.17;;;10.60;43.50;;;;;;20791;6814;123136;-75
2023/04/15 07:24:50;;;;;;;5.28;4.30;;;10.70;41.70;;;;;;20583;6814;309076;-76
2023/04/15 07:27:16;;;;;;;4.80;3.83;;;10.70;41.60;;;;;;20779;6814;119492;-75
2023/04/15 07:29:41;;;;;;;5.12;4.20;;;10.70;42.00;;;;;;20584;6814;306643;-74
2023/04/15 07:32:09;;;;;;;4.80;4.40;;;11.10;41.20;;;;;;20593;6814;278590;-77
2023/04/15 07:34:33;;;;;;;5.43;4.93;;;11.10;41.20;;;;;;20577;6814;297563;-74
2023/04/15 07:36:59;;;;;;;5.00;4.47;;;11.40;40.10;;;;;;20799;6814;117184;-74
2023/04/15 07:39:25;;;;;;;6.20;4.37;;;11.40;40.90;;;;;;20786;6814;122925;-74
2023/04/15 07:41:50;;;;;;;4.50;4.10;;;11.30;41.60;;;;;;20804;6814;117252;-74
2023/04/15 07:44:16;;;;;;;4.37;4.05;;;11.10;42.10;;;;;;20603;6814;278300;-73
2023/04/15 07:46:41;;;;;;;5.28;4.50;;;11.30;40.90;;;;;;20585;6813;331652;-73
2023/04/15 07:49:09;;;;;;;3.95;3.28;;;11.80;41.00;;;;;;20785;6814;117085;-74
2023/04/15 07:51:34;;;;;;;5.07;3.90;;;11.80;41.00;;;;;;20587;6814;403877;-76
2023/04/15 07:54:00;;;;;;;7.65;6.45;;;12.00;40.10;;;;;;20571;6814;310661;-74
2023/04/15 07:56:26;;;;;;;4.07;3.60;;;12.60;40.60;;;;;;20792;6814;117532;-77
2023/04/15 07:58:52;;;;;;;3.80;3.33;;;12.60;40.50;;;;;;20809;6814;117641;-77
2023/04/15 08:01:17;;;;;;;8.90;8.00;;;12.70;40.90;;;;;;20586;6814;277012;-77
2023/04/15 08:03:43;;;;;;;5.60;3.47;;;12.90;39.20;;;;;;20809;6814;123039;-77
2023/04/15 08:06:09;;;;;;;4.68;3.03;;;13.10;39.90;;;;;;20801;6814;117013;-77
2023/04/15 08:08:35;;;;;;;4.43;4.03;;;13.50;38.20;;;;;;20588;6814;281357;-77
2023/04/15 08:11:00;;;;;;;4.63;3.33;;;13.40;38.10;;;;;;20805;6814;116983;-77
2023/04/15 08:13:26;;;;;;;4.93;3.47;;;13.60;38.70;;;;;;20782;6814;120133;-77
2023/04/15 08:15:53;;;;;;;4.55;3.80;;;13.70;37.60;;;;;;20574;6814;305603;-77
2023/04/15 08:18:19;;;;;;;3.60;3.30;;;13.70;37.60;;;;;;20717;6814;117751;-77
2023/04/15 08:20:45;;;;;;;3.33;3.03;;;13.90;38.20;;;;;;20794;6814;119058;-77
2023/04/15 08:23:11;;;;;;;3.90;3.60;;;13.80;39.20;;;;;;20803;6814;117473;-77
2023/04/15 08:25:36;;;;;;;4.73;3.87;;;13.80;39.10;;;;;;20547;6814;335034;-77
2023/04/15 08:28:07;;;;;;;4.18;3.70;;;14.10;36.60;;;;;;20590;6814;277418;-77
2023/04/15 08:30:33;;;;;;;4.77;3.50;;;14.50;36.60;;;;;;20800;6814;117238;-77
2023/04/15 08:32:59;;;;;;;5.13;3.87;;;14.60;38.30;;;;;;20783;6814;117448;-77
2023/04/15 08:35:24;;;;;;;5.70;4.20;;;14.60;38.10;;;;;;20551;6814;306971;-77
2023/04/15 08:37:50;;;;;;;4.60;4.12;;;14.80;37.70;;;;;;20579;6814;307295;-77
2023/04/15 08:40:16;;;;;;;5.10;3.60;;;15.20;37.90;;;;;;20802;6814;117531;-77
2023/04/15 08:42:43;;;;;;;4.17;3.50;;;15.10;38.40;;;;;;20799;6814;117379;-77
2023/04/15 08:45:09;;;;;;;4.20;3.40;;;15.10;38.40;;;;;;20565;6814;314446;-80
2023/04/15 08:47:34;;;;;;;3.93;3.60;;;15.30;36.10;;;;;;20560;6814;440804;-77
2023/04/15 08:50:01;;;;;;;4.68;3.70;;;15.60;35.70;;;;;;20790;6814;117790;-77
2023/04/15 08:52:27;;;;;;;3.57;3.27;;;15.70;37.30;;;;;;20802;6814;116966;-77
2023/04/15 08:54:53;;;;;;;4.67;3.13;;;15.70;37.30;;;;;;20791;6814;118159;-76
2023/04/15 08:57:18;;;;;;;4.50;3.70;;;15.60;37.80;;;;;;20561;6813;342926;-76
2023/04/15 08:59:44;;;;;;;4.20;3.40;;;15.80;36.70;;;;;;20778;6814;116181;-74
2023/04/15 09:02:12;;;;;;;3.60;3.17;;;15.80;37.90;;;;;;20804;6814;117431;-78
2023/04/15 09:04:37;;;;;;;4.07;3.62;;;15.80;37.90;;;;;;20583;6814;306701;-76
2023/04/15 09:07:03;;;;;;;4.12;3.40;;;16.00;36.10;;;;;;20576;6814;279377;-76
2023/04/15 09:09:28;;;;;;;3.97;3.53;;;16.40;35.20;;;;;;20802;6814;117395;-77
2023/04/15 09:11:54;;;;;;;3.83;3.37;;;16.50;36.10;;;;;;20587;6814;307347;-78
2023/04/15 09:14:19;;;;;;;4.03;3.62;;;16.70;35.00;;;;;;20802;6814;118270;-71
2023/04/15 09:17:03;;;;;;;5.70;3.37;;;16.80;35.90;;;;;;20792;6814;123400;-74
2023/04/15 09:19:28;;;;;;;4.05;3.70;;;16.80;36.80;;;;;;20585;6814;306889;-76
2023/04/15 09:21:55;;;;;;;3.60;3.30;;;17.10;35.10;;;;;;20804;6814;117229;-74
2023/04/15 09:24:20;;;;;;;5.35;3.40;;;17.30;35.70;;;;;;20808;6814;117017;-76
2023/04/15 09:26:45;;;;;;;3.17;2.93;;;17.20;36.00;;;;;;20811;6814;117364;-74
2023/04/15 09:29:13;;;;;;;4.57;3.35;;;17.00;36.30;;;;;;20586;6814;311198;-74
2023/04/15 09:31:36;;;;;;;4.70;3.50;;;17.20;35.10;;;;;;20644;6622;308343;-74
2023/04/15 09:34:02;;;;;;;3.85;3.28;;;17.60;35.20;;;;;;21028;6763;117212;-78
2023/04/15 09:36:29;;;;;;;3.87;2.90;;;17.50;35.00;;;;;;20999;6755;119394;-76
2023/04/15 09:38:59;;;;;;;4.00;2.80;;;17.30;35.70;;;;;;20974;6765;116833;-79
2023/04/15 09:41:23;;;;;;;4.73;2.90;;;16.90;36.00;;;;;;20925;6754;122432;-76
2023/04/15 09:43:48;;;;;;;4.13;3.00;;;16.80;35.90;;;;;;20556;6823;308547;-73
2023/04/15 09:46:14;;;;;;;3.47;2.80;;;16.90;33.20;;;;;;20782;6822;117008;-71
2023/04/15 09:48:39;;;;;;;3.23;3.00;;;16.90;34.40;;;;;;20815;6810;119651;-75
2023/04/15 09:51:05;;;;;;;2.93;2.63;;;16.90;35.70;;;;;;20825;6810;117772;-73
2023/04/15 09:53:32;;;;;;;3.00;2.70;;;17.00;36.30;;;;;;20800;6810;118085;-73
2023/04/15 09:55:57;;;;;;;3.20;2.70;;;16.90;36.10;;;;;;20822;6810;118386;-75
2023/04/15 09:58:32;;;;;;;3.28;2.83;;;17.00;36.10;;;;;;20819;6810;117178;-78
2023/04/15 10:00:56;;;;;;;6.97;2.97;;;17.00;36.30;;;;;;20823;6810;117179;-76
2023/04/15 10:03:26;;;;;;;3.13;2.93;;;17.10;36.40;;;;;;20816;6810;121032;-75
2023/04/15 10:05:51;;;;;;;2.57;2.47;;;17.30;36.50;;;;;;20832;6810;117240;-73
2023/04/15 10:08:16;;;;;;;3.00;2.70;;;17.40;36.10;;;;;;20627;6809;292032;-73
2023/04/15 10:10:42;;;;;;;3.00;2.70;;;17.70;34.10;;;;;;20833;6809;117360;-74
2023/04/15 10:13:07;;;;;;;3.30;3.00;;;18.00;34.30;;;;;;20632;6810;307084;-76
2023/04/15 10:15:38;;;;;;;3.43;3.03;;;18.30;32.80;;;;;;20821;6810;120289;-73
2023/04/15 10:18:04;;;;;;;3.77;2.67;;;18.50;33.30;;;;;;20828;6810;117356;-75
2023/04/15 10:20:30;;;;;;;2.83;2.63;;;18.10;33.70;;;;;;20835;6810;117247;-76
2023/04/15 10:22:56;;;;;;;3.30;2.80;;;18.10;33.70;;;;;;20611;6810;311371;-75
2023/04/15 10:25:21;;;;;;;2.60;2.40;;;18.20;31.50;;;;;;20810;6810;117313;-76
2023/04/15 10:27:47;;;;;;;2.97;2.77;;;18.10;32.60;;;;;;20826;6810;121841;-75
2023/04/15 10:30:12;;;;;;;3.23;2.83;;;17.90;33.40;;;;;;20604;6810;282512;-76
2023/04/15 10:32:38;;;;;;;3.42;2.50;;;17.90;32.90;;;;;;20831;6810;120256;-76
2023/04/15 10:35:04;;;;;;;2.80;2.60;;;17.80;33.40;;;;;;20611;6810;306998;-76
2023/04/15 10:37:32;;;;;;;3.33;2.63;;;17.70;32.00;;;;;;20597;6810;340289;-77
2023/04/15 10:39:58;;;;;;;4.20;2.77;;;17.80;31.20;;;;;;20756;6825;120627;-77
2023/04/15 10:42:23;;;;;;;4.05;2.90;;;17.60;32.90;;;;;;20563;6825;310611;-76
2023/04/15 10:44:50;;;;;;;6.22;2.40;;;17.50;31.30;;;;;;20820;6810;117006;-76
2023/04/15 10:47:17;;;;;;;2.83;2.45;;;17.40;32.40;;;;;;20767;6824;117024;-75
2023/04/15 10:49:44;;;;;;;4.27;2.70;;;17.10;33.00;;;;;;20580;6809;312383;-76
2023/04/15 10:52:09;;;;;;;2.45;2.20;;;17.50;31.20;;;;;;20619;6809;307440;-74
2023/04/15 10:54:37;;;;;;;2.50;2.30;;;17.40;31.30;;;;;;20827;6809;117255;-76
2023/04/15 10:57:08;;;;;;;2.93;2.20;;;17.30;33.20;;;;;;20883;6809;116136;-75
2023/04/15 10:59:57;;;;;;;2.33;2.10;;;17.30;32.50;;;;;;20823;6809;117276;-74
2023/04/15 11:02:22;;;;;;;5.13;2.07;;;17.20;33.00;;;;;;20837;6809;119261;-75
2023/04/15 11:04:57;;;;;;;4.57;2.62;;;17.00;33.10;;;;;;20755;6809;118068;-75
2023/04/15 11:07:43;;;;;;;2.93;2.10;;;17.00;33.50;;;;;;20791;6809;117992;-76
2023/04/15 11:10:25;;;;;;;4.50;2.30;;;16.90;33.00;;;;;;20820;6809;117199;-74
2023/04/15 11:13:05;;;;;;;7.07;2.60;;;17.20;32.10;;;;;;20615;6809;280606;-75
2023/04/15 11:15:34;;;;;;;4.33;2.37;;;17.30;32.10;;;;;;20777;6809;123982;-74
2023/04/15 11:18:13;;;;;;;2.83;2.57;;;17.30;32.10;;;;;;20598;6809;283204;-72
2023/04/15 11:20:39;;;;;;;3.40;2.53;;;17.40;30.80;;;;;;20600;6808;278925;-71
2023/04/15 11:23:05;;;;;;;3.25;2.47;;;17.70;30.00;;;;;;20608;6809;320968;-71
2023/04/15 11:25:31;;;;;;;2.62;2.20;;;18.00;29.40;;;;;;20576;6809;307361;-71
2023/04/15 11:27:56;;;;;;;2.70;1.87;;;18.10;28.10;;;;;;20815;6809;117778;-72
2023/04/15 11:30:22;;;;;;;2.53;1.93;;;17.90;28.80;;;;;;20595;6809;310886;-74
2023/04/15 11:32:47;;;;;;;2.40;2.20;;;17.90;27.20;;;;;;20811;6809;117153;-76
2023/04/15 11:35:13;;;;;;;3.40;2.40;;;17.80;28.40;;;;;;20616;6809;278039;-75
2023/04/15 11:37:39;;;;;;;3.47;2.78;;;17.90;28.70;;;;;;20590;6809;282082;-75
2023/04/15 11:40:05;;;;;;;4.60;3.10;;;18.20;28.20;;;;;;20826;6809;117162;-76
2023/04/15 11:42:30;;;;;;;4.17;2.50;;;18.30;29.30;;;;;;20829;6809;120336;-75
2023/04/15 11:45:08;;;;;;;3.00;1.80;;;18.20;29.80;;;;;;20835;6809;123806;-75
2023/04/15 11:47:35;;;;;;;3.20;2.28;;;18.10;29.40;;;;;;20180;6818;340532;-74
2023/04/15 11:50:16;;;;;;;2.43;2.23;;;18.20;27.20;;;;;;20799;6818;117818;-76
2023/04/15 11:52:58;;;;;;;3.90;2.40;;;18.10;28.20;;;;;;20602;6818;307988;-75
2023/04/15 11:55:23;;;;;;;4.17;2.80;;;18.20;27.60;;;;;;20718;6833;117499;-74
2023/04/15 11:57:49;;;;;;;3.23;2.93;;;18.00;28.70;;;;;;20562;6818;312868;-74
2023/04/15 12:00:16;;;;;;;2.70;2.50;;;17.90;28.90;;;;;;20787;6828;68903;-77
2023/04/15 12:02:42;;;;;;;3.97;2.90;;;17.70;29.70;;;;;;20839;6804;116904;-74
2023/04/15 12:05:07;;;;;;;3.03;2.72;;;17.40;30.40;;;;;;20839;6806;117147;-73
2023/04/15 12:07:33;;;;;;;4.07;2.60;;;17.10;31.00;;;;;;20811;6808;117266;-72
2023/04/15 12:09:58;;;;;;;3.13;2.73;;;17.00;31.60;;;;;;20773;6808;117062;-72
2023/04/15 12:12:27;;;;;;;3.00;2.75;;;16.90;32.20;;;;;;20818;6808;117631;-74
2023/04/15 12:14:53;;;;;;;3.10;2.90;;;16.80;32.30;;;;;;20796;6823;117028;-71
2023/04/15 12:17:18;;;;;;;3.30;3.00;;;16.70;32.30;;;;;;20545;6823;279100;-75
2023/04/15 12:19:45;;;;;;;3.67;3.27;;;17.10;31.50;;;;;;20797;6823;117577;-73
2023/04/15 12:22:10;;;;;;;3.42;3.12;;;17.10;31.40;;;;;;20588;6823;308933;-72
2023/04/15 12:24:36;;;;;;;4.50;3.60;;;17.30;30.80;;;;;;20564;6823;336173;-73
2023/04/15 12:27:08;;;;;;;3.87;2.90;;;17.60;30.40;;;;;;20791;6823;117523;-73
2023/04/15 12:29:34;;;;;;;4.80;2.77;;;17.40;31.40;;;;;;20711;6823;117237;-73
2023/04/15 12:32:13;;;;;;;3.80;2.60;;;17.40;31.40;;;;;;20220;6845;278879;-73
2023/04/15 12:34:42;;;;;;;3.40;2.70;;;17.50;30.30;;;;;;20499;6845;337646;-74
2023/04/15 12:37:08;;;;;;;384.33;41.90;;;17.80;30.90;;;;;;20712;6845;117405;-73
2023/04/15 12:39:34;;;;;;;38.80;6.53;;;17.80;30.80;;;;;;20729;6833;117989;-72